createdAt,value
2018-05-21T00:00:00.830Z,4.47
2018-05-21T00:02:28.390Z,4.10
2018-05-21T00:04:55.878Z,3.90
2018-05-21T00:07:24.140Z,4.20
2018-05-21T00:09:51.716Z,3.80
2018-05-21T00:12:19.272Z,4.70
2018-05-21T00:14:46.787Z,4.27
2018-05-21T00:17:14.280Z,4.43
2018-05-21T00:19:41.770Z,4.27
2018-05-21T00:22:09.268Z,4.50
2018-05-21T00:24:36.810Z,4.33
2018-05-21T00:27:05.182Z,4.50
2018-05-21T00:29:32.694Z,4.37
2018-05-21T00:32:00.188Z,4.47
2018-05-21T00:34:27.695Z,4.33
2018-05-21T00:36:55.982Z,4.13
2018-05-21T00:39:24.237Z,4.20
2018-05-21T00:41:51.742Z,4.40
2018-05-21T00:44:19.280Z,4.27
2018-05-21T00:46:46.828Z,4.47
2018-05-21T00:49:14.352Z,4.30
2018-05-21T00:51:41.868Z,4.47
2018-05-21T00:54:09.423Z,3.93
2018-05-21T00:56:36.921Z,4.03
2018-05-21T00:59:05.182Z,3.77
2018-05-21T01:01:32.698Z,4.50
2018-05-21T01:04:00.182Z,4.20
2018-05-21T01:06:27.665Z,4.00
2018-05-21T01:08:55.952Z,4.03
2018-05-21T01:11:23.520Z,4.10
2018-05-21T01:13:51.083Z,4.17
2018-05-21T01:16:18.562Z,4.20
2018-05-21T01:18:46.826Z,3.63
2018-05-21T01:21:14.314Z,4.30
2018-05-21T01:23:42.665Z,4.17
2018-05-21T01:26:10.182Z,4.07
2018-05-21T01:28:37.682Z,4.57
2018-05-21T01:31:05.263Z,4.10
2018-05-21T01:33:33.551Z,4.30
2018-05-21T01:36:01.828Z,4.10
2018-05-21T01:38:29.406Z,4.43
2018-05-21T01:40:56.894Z,4.10
2018-05-21T01:43:25.244Z,4.37
2018-05-21T01:45:52.760Z,4.40
2018-05-21T01:48:20.250Z,3.63
2018-05-21T01:50:47.838Z,4.10
2018-05-21T01:53:15.330Z,4.23
2018-05-21T01:55:43.586Z,4.47
2018-05-21T01:58:11.106Z,3.67
2018-05-21T02:00:38.596Z,3.63
2018-05-21T02:03:06.182Z,4.00
2018-05-21T02:05:33.674Z,4.23
2018-05-21T02:08:02.022Z,4.00
2018-05-21T02:10:29.594Z,4.20
2018-05-21T02:12:57.090Z,4.40
2018-05-21T02:15:25.464Z,3.80
2018-05-21T02:17:53.725Z,4.00
2018-05-21T02:20:21.294Z,4.13
2018-05-21T02:22:48.852Z,3.97
2018-05-21T02:25:16.341Z,3.73
2018-05-21T02:27:44.700Z,4.00
2018-05-21T02:30:12.275Z,4.17
2018-05-21T02:32:39.790Z,4.30
2018-05-21T02:35:07.287Z,4.13
2018-05-21T02:37:34.775Z,4.00
2018-05-21T02:40:03.150Z,4.07
2018-05-21T02:42:30.712Z,4.20
2018-05-21T02:44:58.224Z,4.30
2018-05-21T02:47:25.740Z,3.90
2018-05-21T02:49:53.310Z,3.77
2018-05-21T02:52:20.874Z,4.00
2018-05-21T02:54:49.156Z,3.47
2018-05-21T02:57:16.645Z,3.80
2018-05-21T02:59:45.002Z,3.93
2018-05-21T03:02:12.576Z,3.80
2018-05-21T03:04:40.094Z,4.27
2018-05-21T03:07:07.614Z,4.20
2018-05-21T03:09:35.108Z,4.10
2018-05-21T03:12:02.634Z,4.17
2018-05-21T03:14:30.214Z,3.73
2018-05-21T03:16:58.500Z,4.00
2018-05-21T03:19:26.760Z,3.70
2018-05-21T03:21:54.330Z,3.87
2018-05-21T03:24:21.890Z,3.87
2018-05-21T03:26:49.380Z,3.73
2018-05-21T03:29:17.658Z,3.53
2018-05-21T03:31:45.906Z,3.80
2018-05-21T03:34:13.410Z,4.07
2018-05-21T03:36:41.658Z,3.63
2018-05-21T03:39:09.944Z,3.90
2018-05-21T03:41:37.474Z,3.90
2018-05-21T03:44:04.967Z,3.90
2018-05-21T03:46:32.538Z,3.60
2018-05-21T03:49:00.116Z,3.90
2018-05-21T03:51:27.598Z,3.70
2018-05-21T03:53:55.954Z,3.67
2018-05-21T03:56:23.448Z,3.63
2018-05-21T03:59:03.538Z,3.47
2018-05-21T04:01:42.906Z,3.60
2018-05-21T04:04:10.468Z,3.47
2018-05-21T04:06:38.038Z,3.63
2018-05-21T04:09:05.607Z,3.70
2018-05-21T04:11:33.162Z,3.67
2018-05-21T04:14:00.660Z,3.77
2018-05-21T04:16:28.925Z,3.40
2018-05-21T04:18:56.426Z,3.80
2018-05-21T04:21:23.943Z,3.70
2018-05-21T04:23:51.441Z,3.30
2018-05-21T04:26:18.933Z,3.27
2018-05-21T04:28:46.542Z,3.80
2018-05-21T04:31:14.047Z,3.90
2018-05-21T04:33:41.547Z,3.83
2018-05-21T04:36:09.127Z,3.50
2018-05-21T04:38:36.621Z,3.57
2018-05-21T04:41:04.979Z,3.30
2018-05-21T04:43:33.236Z,3.50
2018-05-21T04:46:00.825Z,3.57
2018-05-21T04:48:28.399Z,3.30
2018-05-21T04:50:55.959Z,3.47
2018-05-21T04:53:23.467Z,3.17
2018-05-21T04:55:50.966Z,3.43
2018-05-21T04:58:18.453Z,3.57
2018-05-21T05:00:45.950Z,3.23
2018-05-21T05:03:14.293Z,3.30
2018-05-21T05:05:41.865Z,3.30
2018-05-21T05:08:09.368Z,3.30
2018-05-21T05:10:37.617Z,3.37
2018-05-21T05:13:05.123Z,3.50
2018-05-21T05:15:32.615Z,3.07
2018-05-21T05:18:00.115Z,3.53
2018-05-21T05:20:27.607Z,3.20
2018-05-21T05:22:55.945Z,3.07
2018-05-21T05:25:23.526Z,3.60
2018-05-21T05:27:51.009Z,3.30
2018-05-21T05:30:19.287Z,3.20
2018-05-21T05:32:47.650Z,3.10
2018-05-21T05:35:15.137Z,3.27
2018-05-21T05:37:43.391Z,3.30
2018-05-21T05:40:10.885Z,3.17
2018-05-21T05:42:39.182Z,3.30
2018-05-21T05:45:06.672Z,3.57
2018-05-21T05:47:34.164Z,3.20
2018-05-21T05:50:02.443Z,3.60
2018-05-21T05:52:29.935Z,3.03
2018-05-21T05:54:58.215Z,2.80
2018-05-21T05:57:26.466Z,3.23
2018-05-21T05:59:54.045Z,2.87
2018-05-21T06:02:22.315Z,3.00
2018-05-21T06:04:49.808Z,3.43
2018-05-21T06:07:18.101Z,2.83
2018-05-21T06:09:46.453Z,3.07
2018-05-21T06:12:14.714Z,3.13
2018-05-21T06:14:42.315Z,3.00
2018-05-21T06:17:09.813Z,3.40
2018-05-21T06:19:37.313Z,3.23
2018-05-21T06:22:04.821Z,2.70
2018-05-21T06:24:33.182Z,3.43
2018-05-21T06:27:00.681Z,3.23
2018-05-21T06:29:28.947Z,3.07
2018-05-21T06:31:57.221Z,3.10
2018-05-21T06:34:24.849Z,2.73
2018-05-21T06:36:52.233Z,2.70
2018-05-21T06:39:19.732Z,2.73
2018-05-21T06:41:48.012Z,2.93
2018-05-21T06:44:16.299Z,2.90
2018-05-21T06:46:44.655Z,3.73
2018-05-21T06:49:12.163Z,3.23
2018-05-21T06:51:39.681Z,3.27
2018-05-21T06:54:07.170Z,3.60
2018-05-21T06:56:35.445Z,3.40
2018-05-21T06:59:03.725Z,3.97
2018-05-21T07:01:31.237Z,4.00
2018-05-21T07:03:58.751Z,4.00
2018-05-21T07:06:26.323Z,4.53
2018-05-21T07:08:53.845Z,3.90
2018-05-21T07:11:21.441Z,4.13
2018-05-21T07:13:49.002Z,3.73
2018-05-21T07:16:16.519Z,4.10
2018-05-21T07:18:44.023Z,4.10
2018-05-21T07:21:11.641Z,3.90
2018-05-21T07:23:39.167Z,4.10
2018-05-21T07:26:06.663Z,4.10
2018-05-21T07:28:35.027Z,4.23
2018-05-21T07:31:02.529Z,3.77
2018-05-21T07:33:30.047Z,4.00
2018-05-21T07:35:58.325Z,4.20
2018-05-21T07:38:25.848Z,5.03
2018-05-21T07:40:53.353Z,4.00
2018-05-21T07:43:20.853Z,4.00
2018-05-21T07:45:48.386Z,3.43
2018-05-21T07:48:16.339Z,3.80
2018-05-21T07:50:45.012Z,3.90
2018-05-21T07:53:12.504Z,3.67
2018-05-21T07:55:39.995Z,3.90
2018-05-21T07:58:08.278Z,3.80
2018-05-21T08:00:35.758Z,4.03
2018-05-21T08:03:04.101Z,3.57
2018-05-21T08:05:31.596Z,3.60
2018-05-21T08:07:59.963Z,3.63
2018-05-21T08:10:27.530Z,3.97
2018-05-21T08:12:55.044Z,3.20
2018-05-21T08:15:22.538Z,3.73
2018-05-21T08:17:50.018Z,3.17
2018-05-21T08:20:17.532Z,3.40
2018-05-21T08:22:45.047Z,3.60
2018-05-21T08:25:12.556Z,3.87
2018-05-21T08:27:40.075Z,3.50
2018-05-21T08:30:07.564Z,3.47
2018-05-21T08:32:35.818Z,3.83
2018-05-21T08:35:03.333Z,3.53
2018-05-21T08:37:30.824Z,3.60
2018-05-21T08:39:58.316Z,3.83
2018-05-21T08:42:25.812Z,3.90
2018-05-21T08:44:54.162Z,3.50
2018-05-21T08:47:22.591Z,3.83
2018-05-21T08:49:50.120Z,3.50
2018-05-21T08:52:18.379Z,3.83
2018-05-21T08:54:45.872Z,3.60
2018-05-21T08:57:13.370Z,3.77
2018-05-21T08:59:41.002Z,4.20
2018-05-21T09:02:08.508Z,3.93
2018-05-21T09:04:36.050Z,4.00
2018-05-21T09:07:03.519Z,3.87
2018-05-21T09:09:31.022Z,3.63
2018-05-21T09:11:58.529Z,3.83
2018-05-21T09:14:26.050Z,3.60
2018-05-21T09:16:53.560Z,3.83
2018-05-21T09:19:21.857Z,4.53
2018-05-21T09:21:50.104Z,4.03
2018-05-21T09:24:17.688Z,4.07
2018-05-21T09:26:46.055Z,4.30
2018-05-21T09:29:13.552Z,3.73
2018-05-21T09:31:41.820Z,4.37
2018-05-21T09:34:10.194Z,4.30
2018-05-21T09:36:37.708Z,4.03
2018-05-21T09:39:06.143Z,3.73
2018-05-21T09:41:33.714Z,3.50
2018-05-21T09:44:01.228Z,3.70
2018-05-21T09:46:28.729Z,4.10
2018-05-21T09:48:56.238Z,3.80
2018-05-21T09:51:23.780Z,3.93
2018-05-21T09:53:52.050Z,4.77
2018-05-21T09:56:19.544Z,4.47
2018-05-21T09:58:47.046Z,4.67
2018-05-21T10:01:14.566Z,4.27
2018-05-21T10:03:42.830Z,4.43
2018-05-21T10:06:11.210Z,4.57
2018-05-21T10:08:38.733Z,4.27
2018-05-21T10:13:41.079Z,5.20
2018-05-21T10:16:09.350Z,4.97
2018-05-21T10:18:36.867Z,4.20
2018-05-21T10:21:04.353Z,4.43
2018-05-21T10:23:31.850Z,4.53
2018-05-21T10:25:59.411Z,4.87
2018-05-21T10:28:26.871Z,5.03
2018-05-21T10:30:54.377Z,6.00
2018-05-21T10:33:21.867Z,4.90
2018-05-21T10:35:49.370Z,5.90
2018-05-21T10:38:16.897Z,5.03
2018-05-21T10:40:44.397Z,5.07
2018-05-21T10:43:11.887Z,4.77
2018-05-21T10:45:40.232Z,5.03
2018-05-21T10:48:07.811Z,5.43
2018-05-21T10:50:36.092Z,5.37
2018-05-21T10:53:03.659Z,5.20
2018-05-21T10:55:31.947Z,5.17
2018-05-21T10:57:59.444Z,4.80
2018-05-21T11:00:26.963Z,5.23
2018-05-21T11:02:54.504Z,4.60
2018-05-21T11:05:22.003Z,4.77
2018-05-21T11:07:49.505Z,5.57
2018-05-21T11:10:17.025Z,5.10
2018-05-21T11:12:44.544Z,4.70
2018-05-21T11:15:12.170Z,4.63
2018-05-21T11:17:39.670Z,5.07
2018-05-21T11:20:07.231Z,4.80
2018-05-21T11:22:34.753Z,5.90
2018-05-21T11:25:02.247Z,5.40
2018-05-21T11:27:29.773Z,5.90
2018-05-21T11:29:57.337Z,5.30
2018-05-21T11:32:24.912Z,5.50
2018-05-21T11:34:52.485Z,4.70
2018-05-21T11:37:19.996Z,5.07
2018-05-21T11:39:47.604Z,5.03
2018-05-21T11:42:15.183Z,5.00
2018-05-21T11:44:42.745Z,4.87
2018-05-21T11:47:10.249Z,5.20
2018-05-21T11:49:37.759Z,6.00
2018-05-21T11:52:05.323Z,5.27
2018-05-21T11:54:32.825Z,5.10
2018-05-21T11:57:01.191Z,5.13
2018-05-21T11:59:28.746Z,4.50
2018-05-21T12:01:56.289Z,4.97
2018-05-21T12:04:23.777Z,5.27
2018-05-21T12:06:51.357Z,5.13
2018-05-21T12:09:18.909Z,5.10
2018-05-21T12:11:46.415Z,6.00
2018-05-21T12:14:13.909Z,5.33
2018-05-21T12:16:41.426Z,5.73
2018-05-21T12:19:09.767Z,6.03
2018-05-21T12:21:37.353Z,5.90
2018-05-21T12:24:05.623Z,5.67
2018-05-21T12:26:33.201Z,5.73
2018-05-21T12:29:00.701Z,5.77
2018-05-21T12:31:28.198Z,5.63
2018-05-21T12:33:55.700Z,6.00
2018-05-21T12:36:23.199Z,5.53
2018-05-21T12:38:50.676Z,5.33
2018-05-21T12:41:18.288Z,4.90
2018-05-21T12:43:46.550Z,4.87
2018-05-21T12:46:14.065Z,5.53
2018-05-21T12:48:42.327Z,5.03
2018-05-21T12:51:09.892Z,4.93
2018-05-21T12:53:37.459Z,5.77
2018-05-21T12:56:04.953Z,5.60
2018-05-21T12:58:32.453Z,5.13
2018-05-21T13:01:00.050Z,4.83
2018-05-21T13:03:27.615Z,4.80
2018-05-21T13:05:55.127Z,4.90
2018-05-21T13:08:22.625Z,4.87
2018-05-21T13:10:50.122Z,5.00
2018-05-21T13:13:18.491Z,4.10
2018-05-21T13:15:46.063Z,4.20
2018-05-21T13:18:13.609Z,4.57
2018-05-21T13:20:41.127Z,5.10
2018-05-21T13:23:08.621Z,5.53
2018-05-21T13:25:36.233Z,8.03
2018-05-21T13:28:04.508Z,7.40
2018-05-21T13:30:32.058Z,7.20
2018-05-21T13:32:59.565Z,5.13
2018-05-21T13:35:27.092Z,4.20
2018-05-21T13:37:54.619Z,5.27
2018-05-21T13:40:22.215Z,5.07
2018-05-21T13:42:49.735Z,4.77
2018-05-21T13:45:17.269Z,4.80
2018-05-21T13:47:44.745Z,4.60
2018-05-21T13:50:13.104Z,4.30
2018-05-21T13:52:40.673Z,4.13
2018-05-21T13:55:08.245Z,4.60
2018-05-21T13:57:36.517Z,3.90
2018-05-21T14:00:04.026Z,3.63
2018-05-21T14:02:31.542Z,3.87
2018-05-21T14:04:59.108Z,3.50
2018-05-21T14:07:26.680Z,3.70
2018-05-21T14:09:54.243Z,3.77
2018-05-21T14:12:21.740Z,3.30
2018-05-21T14:14:49.273Z,3.70
2018-05-21T14:17:16.855Z,3.60
2018-05-21T14:19:44.308Z,3.53
2018-05-21T14:22:11.894Z,3.70
2018-05-21T14:24:40.159Z,3.70
2018-05-21T14:27:07.663Z,3.47
2018-05-21T14:29:35.196Z,3.20
2018-05-21T14:32:03.569Z,3.33
2018-05-21T14:34:31.137Z,3.40
2018-05-21T14:36:58.639Z,3.70
2018-05-21T14:39:26.148Z,3.40
2018-05-21T14:41:53.723Z,3.37
2018-05-21T14:44:21.315Z,3.00
2018-05-21T14:46:49.674Z,3.30
2018-05-21T14:49:17.244Z,3.10
2018-05-21T14:51:44.813Z,3.30
2018-05-21T14:54:12.305Z,3.30
2018-05-21T14:56:39.834Z,3.37
2018-05-21T14:59:07.401Z,3.77
2018-05-21T15:01:34.996Z,3.67
2018-05-21T15:04:03.296Z,3.93
2018-05-21T15:06:30.822Z,3.50
2018-05-21T15:08:58.395Z,3.30
2018-05-21T15:11:25.939Z,3.53
2018-05-21T15:13:53.442Z,3.17
2018-05-21T15:16:21.702Z,3.47
2018-05-21T15:18:49.208Z,3.00
2018-05-21T15:21:16.825Z,3.10
2018-05-21T15:23:44.331Z,3.60
2018-05-21T15:26:11.840Z,3.00
2018-05-21T15:28:39.386Z,3.30
2018-05-21T15:31:06.994Z,3.77
2018-05-21T15:33:34.550Z,3.20
2018-05-21T15:36:02.079Z,3.40
2018-05-21T15:38:29.571Z,3.00
2018-05-21T15:40:57.066Z,3.13
2018-05-21T15:43:25.414Z,3.00
2018-05-21T15:45:53.752Z,3.20
2018-05-21T15:48:21.282Z,3.37
2018-05-21T15:50:48.787Z,3.20
2018-05-21T15:53:16.302Z,2.80
2018-05-21T15:55:43.870Z,3.47
2018-05-21T15:58:11.403Z,3.00
2018-05-21T16:00:38.997Z,3.13
2018-05-21T16:03:06.492Z,3.03
2018-05-21T16:05:34.848Z,3.10
2018-05-21T16:08:02.362Z,3.07
2018-05-21T16:10:29.864Z,3.03
2018-05-21T16:12:57.472Z,3.37
2018-05-21T16:15:25.856Z,3.50
2018-05-21T16:17:54.216Z,6.50
2018-05-21T16:20:21.744Z,3.20
2018-05-21T16:22:49.358Z,3.50
2018-05-21T16:25:17.734Z,3.50
2018-05-21T16:27:45.243Z,3.53
2018-05-21T16:30:12.812Z,3.50
2018-05-21T16:32:40.268Z,5.10
2018-05-21T16:35:07.898Z,6.17
2018-05-21T16:37:35.408Z,4.63
2018-05-21T16:40:02.916Z,4.57
2018-05-21T16:42:30.491Z,5.07
2018-05-21T16:44:58.033Z,4.50
2018-05-21T16:47:25.648Z,4.33
2018-05-21T16:49:53.909Z,4.17
2018-05-21T16:52:21.476Z,4.10
2018-05-21T16:54:49.748Z,3.93
2018-05-21T16:57:17.270Z,4.17
2018-05-21T16:59:44.890Z,3.30
2018-05-21T17:02:12.394Z,4.23
2018-05-21T17:04:39.883Z,4.17
2018-05-21T17:07:07.554Z,4.20
2018-05-21T17:09:35.767Z,3.47
2018-05-21T17:12:03.328Z,3.77
2018-05-21T17:14:30.836Z,3.70
2018-05-21T17:16:58.361Z,3.70
2018-05-21T17:19:25.866Z,3.80
2018-05-21T17:21:53.374Z,3.67
2018-05-21T17:24:20.943Z,3.93
2018-05-21T17:26:48.519Z,3.93
2018-05-21T17:29:16.150Z,3.53
2018-05-21T17:31:44.467Z,4.43
2018-05-21T17:34:11.981Z,4.00
2018-05-21T17:36:39.612Z,3.83
2018-05-21T17:39:07.109Z,3.90
2018-05-21T17:41:34.625Z,3.67
2018-05-21T17:44:02.135Z,3.30
2018-05-21T17:46:29.658Z,4.10
2018-05-21T17:48:57.197Z,4.20
2018-05-21T17:51:24.792Z,4.00
2018-05-21T17:53:52.290Z,4.53
2018-05-21T17:56:19.802Z,4.33
2018-05-21T17:58:47.405Z,4.10
2018-05-21T18:01:15.692Z,3.90
2018-05-21T18:03:44.010Z,4.40
2018-05-21T18:06:11.488Z,4.07
2018-05-21T18:08:39.016Z,4.37
2018-05-21T18:11:06.530Z,4.10
2018-05-21T18:13:34.113Z,4.37
2018-05-21T18:16:01.674Z,4.17
2018-05-21T18:18:29.196Z,4.27
2018-05-21T18:20:56.701Z,3.80
2018-05-21T18:23:24.338Z,4.50
2018-05-21T18:25:51.876Z,4.53
2018-05-21T18:28:19.390Z,4.57
2018-05-21T18:30:46.974Z,4.30
2018-05-21T18:33:14.496Z,4.50
2018-05-21T18:35:42.880Z,4.97
2018-05-21T18:38:10.324Z,4.60
2018-05-21T18:40:37.847Z,4.63
2018-05-21T18:43:05.336Z,4.70
2018-05-21T18:45:32.852Z,4.83
2018-05-21T18:48:00.395Z,4.73
2018-05-21T18:50:27.932Z,4.70
2018-05-21T18:52:56.217Z,4.70
2018-05-21T18:55:23.789Z,5.00
2018-05-21T18:57:51.301Z,4.80
2018-05-21T19:00:18.827Z,4.80
2018-05-21T19:02:46.365Z,4.50
2018-05-21T19:05:14.647Z,4.77
2018-05-21T19:07:42.921Z,4.63
2018-05-21T19:10:11.281Z,5.00
2018-05-21T19:12:39.491Z,4.50
2018-05-21T19:15:07.831Z,4.77
2018-05-21T19:17:35.358Z,5.40
2018-05-21T19:20:02.866Z,4.87
2018-05-21T19:22:30.475Z,5.77
2018-05-21T19:24:59.457Z,5.17
2018-05-21T19:27:26.994Z,5.83
2018-05-21T19:29:54.495Z,5.63
2018-05-21T19:32:23.489Z,5.80
2018-05-21T19:34:51.772Z,10.10
2018-05-21T19:37:20.071Z,7.70
2018-05-21T19:39:47.619Z,7.47
2018-05-21T19:42:15.983Z,7.43
2018-05-21T19:44:43.513Z,7.87
2018-05-21T19:47:11.043Z,6.80
2018-05-21T19:49:39.359Z,7.20
2018-05-21T19:52:06.885Z,6.93
2018-05-21T19:54:36.010Z,7.80
2018-05-21T19:57:03.547Z,7.77
2018-05-21T19:59:31.910Z,7.50
2018-05-21T20:01:59.495Z,6.70
2018-05-21T20:04:27.029Z,6.83
2018-05-21T20:06:54.560Z,6.83
2018-05-21T20:09:22.095Z,7.20
2018-05-21T20:11:50.397Z,6.47
2018-05-21T20:14:18.700Z,7.40
2018-05-21T20:16:46.253Z,7.83
2018-05-21T20:19:13.793Z,7.33
2018-05-21T20:21:42.075Z,7.27
2018-05-21T20:24:09.601Z,8.00
2018-05-21T20:26:37.119Z,7.73
2018-05-21T20:29:05.494Z,7.83
2018-05-21T20:31:33.912Z,7.70
2018-05-21T20:34:01.335Z,11.67
2018-05-21T20:36:28.849Z,9.33
2018-05-21T20:38:56.383Z,10.40
2018-05-21T20:41:24.679Z,9.57
2018-05-21T20:43:52.193Z,11.97
2018-05-21T20:46:19.808Z,9.67
2018-05-21T20:48:47.312Z,10.10
2018-05-21T20:51:14.910Z,9.13
2018-05-21T20:53:42.460Z,9.10
2018-05-21T20:56:09.987Z,8.47
2018-05-21T20:58:37.499Z,8.60
2018-05-21T21:01:05.031Z,8.20
2018-05-21T21:03:32.622Z,8.23
2018-05-21T21:06:00.209Z,8.43
2018-05-21T21:08:28.575Z,8.53
2018-05-21T21:10:56.147Z,8.10
2018-05-21T21:13:23.663Z,8.00
2018-05-21T21:15:51.181Z,7.67
2018-05-21T21:18:19.570Z,7.47
2018-05-21T21:20:47.075Z,7.30
2018-05-21T21:23:14.589Z,7.53
2018-05-21T21:25:42.095Z,7.63
2018-05-21T21:28:09.585Z,7.20
2018-05-21T21:30:37.095Z,7.70
2018-05-21T21:33:05.461Z,7.27
2018-05-21T21:35:33.719Z,7.23
2018-05-21T21:38:01.315Z,7.37
2018-05-21T21:40:28.865Z,9.37
2018-05-21T21:42:56.445Z,8.53
2018-05-21T21:45:24.003Z,7.90
2018-05-21T21:47:51.589Z,8.20
2018-05-21T21:50:19.853Z,7.80
2018-05-21T21:52:47.347Z,7.93
2018-05-21T21:55:15.700Z,8.00
2018-05-21T21:57:43.261Z,6.90
2018-05-21T22:00:10.761Z,7.77
2018-05-21T22:02:39.042Z,7.80
2018-05-21T22:05:07.308Z,6.93
2018-05-21T22:07:35.695Z,7.07
2018-05-21T22:10:03.241Z,6.80
2018-05-21T22:12:30.737Z,7.07
2018-05-21T22:14:58.997Z,6.97
2018-05-21T22:17:26.497Z,6.63
2018-05-21T22:19:54.016Z,6.47
2018-05-21T22:22:21.503Z,6.80
2018-05-21T22:24:49.865Z,6.90
2018-05-21T22:27:17.385Z,6.70
2018-05-21T22:29:44.869Z,6.87
2018-05-21T22:32:12.460Z,5.63
2018-05-21T22:34:39.945Z,6.40
2018-05-21T22:37:08.289Z,6.70
2018-05-21T22:39:35.781Z,6.30
2018-05-21T22:42:04.047Z,6.37
2018-05-21T22:44:46.138Z,6.23
2018-05-21T22:47:13.750Z,6.23
2018-05-21T22:49:41.999Z,5.83
2018-05-21T22:52:09.514Z,6.57
2018-05-21T22:54:37.006Z,6.20
2018-05-21T22:57:04.519Z,6.00
2018-05-21T22:59:32.877Z,6.03
2018-05-21T23:02:00.372Z,5.73
2018-05-21T23:04:28.726Z,5.83
2018-05-21T23:06:56.254Z,5.80
2018-05-21T23:09:23.871Z,5.60
2018-05-21T23:11:51.361Z,5.80
2018-05-21T23:14:18.897Z,5.80
2018-05-21T23:16:46.398Z,5.10
2018-05-21T23:19:13.899Z,5.90
2018-05-21T23:21:41.482Z,5.63
2018-05-21T23:24:08.997Z,5.20
2018-05-21T23:26:36.507Z,5.93
2018-05-21T23:29:04.075Z,5.57
2018-05-21T23:31:31.576Z,5.30
2018-05-21T23:33:59.886Z,5.50
2018-05-21T23:36:27.369Z,5.40
2018-05-21T23:38:54.857Z,5.47
2018-05-21T23:41:22.413Z,4.87
2018-05-21T23:43:49.909Z,5.07
2018-05-21T23:46:18.178Z,5.33
2018-05-21T23:48:46.452Z,5.13
2018-05-21T23:51:13.949Z,5.40
2018-05-21T23:53:41.427Z,4.87
2018-05-21T23:56:08.913Z,5.27
2018-05-21T23:58:36.423Z,4.90
